createdAt,value
2023-03-29T00:00:15.776Z,2.50
2023-03-29T00:05:39.054Z,2.23
2023-03-29T00:11:01.140Z,2.13
2023-03-29T00:16:23.126Z,2.00
2023-03-29T00:21:44.898Z,2.03
2023-03-29T00:27:06.998Z,1.85
2023-03-29T00:32:28.993Z,1.90
2023-03-29T00:37:50.986Z,2.00
2023-03-29T00:43:14.733Z,1.95
2023-03-29T00:48:36.542Z,2.22
2023-03-29T00:54:01.651Z,2.15
2023-03-29T00:59:25.734Z,2.08
2023-03-29T01:05:05.860Z,2.30
2023-03-29T01:10:36.135Z,1.73
2023-03-29T01:15:59.058Z,1.90
2023-03-29T01:21:29.225Z,2.00
2023-03-29T01:27:00.514Z,2.05
2023-03-29T01:32:39.253Z,2.03
2023-03-29T01:38:23.376Z,2.20
2023-03-29T01:44:02.119Z,1.77
2023-03-29T01:49:28.793Z,2.13
2023-03-29T01:55:00.908Z,1.95
2023-03-29T02:00:27.422Z,2.10
2023-03-29T02:05:49.360Z,2.42
2023-03-29T02:11:11.242Z,1.87
2023-03-29T02:16:37.576Z,2.35
2023-03-29T02:22:07.092Z,1.90
2023-03-29T02:27:29.891Z,2.10
2023-03-29T02:33:05.022Z,1.90
2023-03-29T02:38:27.927Z,1.92
2023-03-29T02:43:50.640Z,1.80
2023-03-29T02:49:12.912Z,2.10
2023-03-29T02:54:37.871Z,1.77
2023-03-29T03:00:00.968Z,1.88
2023-03-29T03:05:23.811Z,2.30
2023-03-29T03:10:46.699Z,2.37
2023-03-29T03:16:09.354Z,2.27
2023-03-29T03:21:31.107Z,2.33
2023-03-29T03:26:52.875Z,1.90
2023-03-29T03:32:14.623Z,2.10
2023-03-29T03:37:36.301Z,2.05
2023-03-29T03:42:58.222Z,1.98
2023-03-29T03:48:20.332Z,2.00
2023-03-29T03:53:42.287Z,1.80
2023-03-29T03:59:04.674Z,2.00
2023-03-29T04:04:26.706Z,1.93
2023-03-29T04:09:48.792Z,1.52
2023-03-29T04:15:11.983Z,1.98
2023-03-29T04:20:34.075Z,1.85
2023-03-29T04:25:59.313Z,1.63
2023-03-29T04:31:21.078Z,1.90
2023-03-29T04:36:43.714Z,1.70
2023-03-29T04:42:05.906Z,1.80
2023-03-29T04:47:31.229Z,1.70
2023-03-29T04:52:52.950Z,2.25
2023-03-29T04:58:15.005Z,2.33
2023-03-29T05:03:36.688Z,1.75
2023-03-29T05:08:58.373Z,2.20
2023-03-29T05:14:20.565Z,1.77
2023-03-29T05:19:43.599Z,1.90
2023-03-29T05:25:05.978Z,1.88
2023-03-29T05:30:27.725Z,2.03
2023-03-29T05:35:49.441Z,1.60
2023-03-29T05:41:11.372Z,1.90
2023-03-29T05:46:33.108Z,2.10
2023-03-29T05:51:56.845Z,2.00
2023-03-29T05:57:18.787Z,1.90
2023-03-29T06:02:41.843Z,1.88
2023-03-29T06:08:03.701Z,2.10
2023-03-29T06:13:26.156Z,2.35
2023-03-29T06:18:47.904Z,2.30
2023-03-29T06:24:09.639Z,2.30
2023-03-29T06:29:31.584Z,2.50
2023-03-29T06:34:54.320Z,2.67
2023-03-29T06:40:21.190Z,2.35
2023-03-29T06:45:43.621Z,1.67
2023-03-29T06:51:07.507Z,2.13
2023-03-29T06:56:29.840Z,2.10
2023-03-29T07:01:53.875Z,2.45
2023-03-29T07:07:22.142Z,2.58
2023-03-29T07:12:46.116Z,2.83
2023-03-29T07:18:12.579Z,2.53
2023-03-29T07:23:34.793Z,2.55
2023-03-29T07:28:56.500Z,2.30
2023-03-29T07:34:18.240Z,2.42
2023-03-29T07:39:40.290Z,2.20
2023-03-29T07:45:04.048Z,1.60
2023-03-29T07:50:27.272Z,1.80
2023-03-29T07:55:50.029Z,1.95
2023-03-29T08:01:17.997Z,2.00
2023-03-29T08:06:41.209Z,1.55
2023-03-29T08:12:02.981Z,1.40
2023-03-29T08:17:24.742Z,1.50
2023-03-29T08:22:46.568Z,1.63
2023-03-29T08:28:08.577Z,1.70
2023-03-29T08:33:30.253Z,1.63
2023-03-29T08:38:52.020Z,1.27
2023-03-29T08:44:32.757Z,1.38
2023-03-29T08:49:56.401Z,1.73
2023-03-29T08:55:29.405Z,1.55
2023-03-29T09:00:59.703Z,1.88
2023-03-29T09:06:21.971Z,1.80
2023-03-29T09:12:11.876Z,1.50
2023-03-29T09:17:41.697Z,1.38
2023-03-29T09:23:30.273Z,2.00
2023-03-29T09:29:06.134Z,1.45
2023-03-29T09:34:34.707Z,2.00
2023-03-29T09:39:57.586Z,1.60
2023-03-29T09:45:19.453Z,1.63
2023-03-29T09:50:46.445Z,1.38
2023-03-29T09:56:08.589Z,1.48
2023-03-29T10:01:39.815Z,1.60
2023-03-29T10:07:01.669Z,1.50
2023-03-29T10:12:23.394Z,1.52
2023-03-29T10:17:46.154Z,1.75
2023-03-29T10:23:17.214Z,1.45
2023-03-29T10:28:39.906Z,1.42
2023-03-29T10:34:04.958Z,1.50
2023-03-29T10:39:32.753Z,1.35
2023-03-29T10:44:59.470Z,1.70
2023-03-29T10:50:21.221Z,1.40
2023-03-29T10:55:49.157Z,1.60
2023-03-29T11:01:22.042Z,1.63
2023-03-29T11:06:53.797Z,1.60
2023-03-29T11:12:38.949Z,1.67
2023-03-29T11:18:25.131Z,1.50
2023-03-29T11:24:04.917Z,1.60
2023-03-29T11:29:38.476Z,1.42
2023-03-29T11:35:18.493Z,1.70
2023-03-29T11:40:55.399Z,1.42
2023-03-29T11:46:23.607Z,1.55
2023-03-29T11:51:54.281Z,1.48
2023-03-29T11:57:39.868Z,1.40
2023-03-29T12:03:19.703Z,1.42
2023-03-29T12:08:48.263Z,1.50
2023-03-29T12:14:46.839Z,1.25
2023-03-29T12:20:28.274Z,1.70
2023-03-29T12:26:03.664Z,1.52
2023-03-29T12:31:47.869Z,1.30
2023-03-29T12:37:21.999Z,1.13
2023-03-29T12:42:59.688Z,1.10
2023-03-29T12:48:28.478Z,1.40
2023-03-29T12:54:00.457Z,1.13
2023-03-29T12:59:52.266Z,1.13
2023-03-29T13:05:29.549Z,1.23
2023-03-29T13:10:56.234Z,1.50
2023-03-29T13:16:21.774Z,1.40
2023-03-29T13:22:04.676Z,1.40
2023-03-29T13:27:56.189Z,1.08
2023-03-29T13:34:09.759Z,1.30
2023-03-29T13:39:36.773Z,0.98
2023-03-29T13:45:26.172Z,1.13
2023-03-29T13:50:55.583Z,1.40
2023-03-29T13:56:24.683Z,1.20
2023-03-29T14:01:57.826Z,1.08
2023-03-29T14:07:26.143Z,1.70
2023-03-29T14:12:48.603Z,1.30
2023-03-29T14:18:12.525Z,1.20
2023-03-29T14:23:37.108Z,1.60
2023-03-29T14:29:02.587Z,1.40
2023-03-29T14:34:24.342Z,1.20
2023-03-29T14:39:46.255Z,1.70
2023-03-29T14:45:14.108Z,1.52
2023-03-29T14:50:36.435Z,2.28
2023-03-29T14:55:58.603Z,1.90
2023-03-29T15:01:23.480Z,1.38
2023-03-29T15:06:46.895Z,1.35
2023-03-29T15:12:16.098Z,1.33
2023-03-29T15:17:50.521Z,1.38
2023-03-29T15:23:16.750Z,1.50
2023-03-29T15:28:48.180Z,1.40
2023-03-29T15:34:12.978Z,2.30
2023-03-29T15:39:35.130Z,2.17
2023-03-29T15:44:56.841Z,2.20
2023-03-29T15:50:18.857Z,2.00
2023-03-29T15:55:44.580Z,1.35
2023-03-29T16:01:11.980Z,1.45
2023-03-29T16:06:34.673Z,1.80
2023-03-29T16:11:56.473Z,1.80
2023-03-29T16:17:18.220Z,1.52
2023-03-29T16:22:39.924Z,1.80
2023-03-29T16:28:01.594Z,2.30
2023-03-29T16:33:23.326Z,2.30
2023-03-29T16:38:45.110Z,2.10
2023-03-29T16:44:07.339Z,2.60
2023-03-29T16:49:29.079Z,2.75
2023-03-29T16:54:50.772Z,3.42
2023-03-29T17:00:15.779Z,2.95
2023-03-29T17:05:41.267Z,2.80
2023-03-29T17:11:03.820Z,2.28
2023-03-29T17:16:28.405Z,2.67
2023-03-29T17:21:51.252Z,2.70
2023-03-29T17:27:13.005Z,2.00
2023-03-29T17:32:35.678Z,2.30
2023-03-29T17:38:01.316Z,3.75
2023-03-29T17:43:23.237Z,3.50
2023-03-29T17:48:46.226Z,3.10
2023-03-29T17:54:08.148Z,2.58
2023-03-29T17:59:29.885Z,2.10
2023-03-29T18:04:51.723Z,2.90
2023-03-29T18:10:13.448Z,2.88
2023-03-29T18:15:35.360Z,3.42
2023-03-29T18:20:57.067Z,2.47
2023-03-29T18:26:19.048Z,2.42
2023-03-29T18:31:40.990Z,2.85
2023-03-29T18:37:02.936Z,2.60
2023-03-29T18:42:24.975Z,2.72
2023-03-29T18:47:46.850Z,2.35
2023-03-29T18:53:10.845Z,2.60
2023-03-29T18:58:32.643Z,2.90
2023-03-29T19:03:54.420Z,3.58
2023-03-29T19:09:16.219Z,4.22
2023-03-29T19:14:38.002Z,2.22
2023-03-29T19:19:59.821Z,3.20
2023-03-29T19:25:21.612Z,5.03
2023-03-29T19:30:43.540Z,3.55
2023-03-29T19:36:05.812Z,3.58
2023-03-29T19:41:28.246Z,3.00
2023-03-29T19:46:51.202Z,4.25
2023-03-29T19:52:14.074Z,4.20
2023-03-29T19:57:35.876Z,4.88
2023-03-29T20:02:57.694Z,4.53
2023-03-29T20:08:19.812Z,3.58
2023-03-29T20:13:42.897Z,3.72
2023-03-29T20:19:06.907Z,4.72
2023-03-29T20:24:29.056Z,5.05
2023-03-29T20:29:50.837Z,6.30
2023-03-29T20:35:12.660Z,5.88
2023-03-29T20:40:34.554Z,4.80
2023-03-29T20:45:56.298Z,4.35
2023-03-29T20:51:18.096Z,3.45
2023-03-29T20:56:42.244Z,3.90
2023-03-29T21:02:04.518Z,3.40
2023-03-29T21:07:26.488Z,4.20
2023-03-29T21:12:48.422Z,4.30
2023-03-29T21:18:10.154Z,4.47
2023-03-29T21:23:32.054Z,5.15
2023-03-29T21:28:53.881Z,5.93
2023-03-29T21:34:15.790Z,5.90
2023-03-29T21:39:37.496Z,8.38
2023-03-29T21:44:59.208Z,5.75
2023-03-29T21:50:20.955Z,5.35
2023-03-29T21:55:42.656Z,7.18
2023-03-29T22:01:07.144Z,3.85
2023-03-29T22:06:29.018Z,3.53
2023-03-29T22:11:51.764Z,3.45
2023-03-29T22:17:13.454Z,3.38
2023-03-29T22:22:35.185Z,2.83
2023-03-29T22:27:56.878Z,2.60
2023-03-29T22:33:18.547Z,2.90
2023-03-29T22:38:40.442Z,3.15
2023-03-29T22:44:02.247Z,2.45
2023-03-29T22:49:24.053Z,2.40
2023-03-29T22:54:45.728Z,2.25
2023-03-29T23:00:09.147Z,2.83
2023-03-29T23:05:31.153Z,2.28
2023-03-29T23:10:52.998Z,2.38
2023-03-29T23:16:15.426Z,3.05
2023-03-29T23:21:37.216Z,2.42
2023-03-29T23:26:59.210Z,2.72
2023-03-29T23:32:21.049Z,2.75
2023-03-29T23:37:43.342Z,3.40
2023-03-29T23:43:05.094Z,3.00
2023-03-29T23:48:27.153Z,2.78
2023-03-29T23:53:49.498Z,2.47
2023-03-29T23:59:11.222Z,2.78
